Time;durP1;ratioP1;P1;durP2;ratioP2;P2;SDS_P1;SDS_P2;PMS_P1;PMS_P2;Temp;Humidity;BMP_temperature;BMP_pressure;BME280_temperature;BME280_humidity;BME280_pressure;Samples;Min_cycle;Max_cycle;Signal;HPM_P1;HPM_P2
2022/03/15 00:00:59;;;;;;;256.80;128.90;;;;;;;-2.09;70.14;96101.90;1701106;82;21080;-51
2022/03/15 00:03:26;;;;;;;270.23;134.10;;;;;;;-2.01;69.98;96100.45;1701828;83;20970;-52
2022/03/15 00:05:54;;;;;;;291.98;134.78;;;;;;;-1.93;69.61;96102.83;1698945;83;21030;-51
2022/03/15 00:08:21;;;;;;;312.38;149.32;;;;;;;-1.92;69.11;96103.06;1701837;83;21688;-51
2022/03/15 00:10:54;;;;;;;321.95;152.10;;;;;;;-1.96;69.04;96103.50;1699436;84;21002;-52
2022/03/15 00:13:20;;;;;;;306.80;147.70;;;;;;;-1.97;69.07;96097.89;1698908;84;20970;-52
2022/03/15 00:15:48;;;;;;;315.98;144.25;;;;;;;-1.94;68.80;96097.22;1703010;83;20962;-53
2022/03/15 00:18:17;;;;;;;281.63;137.32;;;;;;;-2.02;68.82;96093.49;1699600;84;21017;-52
2022/03/15 00:20:44;;;;;;;306.65;145.92;;;;;;;-2.01;68.52;96102.35;1699745;83;21081;-51
2022/03/15 00:23:11;;;;;;;301.62;142.50;;;;;;;-2.18;68.56;96092.55;1699349;84;21236;-51
2022/03/15 00:25:41;;;;;;;302.18;140.25;;;;;;;-2.25;68.88;96090.98;1701842;83;21053;-51
2022/03/15 00:28:08;;;;;;;286.45;137.68;;;;;;;-2.33;68.80;96099.92;1699756;83;20970;-50
2022/03/15 00:30:35;;;;;;;297.02;136.07;;;;;;;-2.37;69.21;96103.06;1698067;84;20975;-50
2022/03/15 00:33:03;;;;;;;271.18;134.97;;;;;;;-2.38;69.45;96101.48;1698513;84;21030;-50
2022/03/15 00:35:32;;;;;;;335.73;154.27;;;;;;;-2.33;69.32;96098.58;1699372;83;21259;-50
2022/03/15 00:38:00;;;;;;;335.20;158.40;;;;;;;-2.34;69.24;96099.70;1699120;83;20959;-51
2022/03/15 00:40:27;;;;;;;307.73;145.40;;;;;;;-2.36;69.50;96099.24;1700439;84;21057;-51
2022/03/15 00:42:54;;;;;;;302.22;145.82;;;;;;;-2.37;69.42;96099.02;1702093;83;21034;-51
2022/03/15 00:45:28;;;;;;;281.15;137.45;;;;;;;-2.44;69.47;96097.44;1700979;83;21014;-52
2022/03/15 00:47:57;;;;;;;262.12;125.60;;;;;;;-2.49;69.51;96095.50;1701212;83;22172;-50
2022/03/15 00:50:26;;;;;;;283.82;137.43;;;;;;;-2.56;69.61;96092.00;1697984;82;21022;-52
2022/03/15 00:52:53;;;;;;;258.23;126.30;;;;;;;-2.56;69.73;96095.23;1698257;84;21079;-51
2022/03/15 00:55:22;;;;;;;269.02;131.97;;;;;;;-2.53;69.70;96093.25;1700725;84;21080;-51
2022/03/15 00:57:49;;;;;;;268.07;129.60;;;;;;;-2.48;69.61;96095.16;1701416;83;21092;-53
2022/03/15 01:00:19;;;;;;;215.07;104.05;;;;;;;-2.40;69.39;96091.60;1698835;83;21228;-51
2022/03/15 01:02:49;;;;;;;163.52;79.80;;;;;;;-2.30;69.32;96095.21;1699680;84;21050;-58
2022/03/15 01:05:16;;;;;;;292.45;130.12;;;;;;;-2.25;69.04;96092.33;1701933;84;20994;-54
2022/03/15 01:07:46;;;;;;;221.53;103.42;;;;;;;-2.24;68.40;96090.41;1700796;83;21462;-51
2022/03/15 01:10:16;;;;;;;250.45;115.70;;;;;;;-2.28;68.49;96090.30;1700701;83;20938;-53
2022/03/15 01:12:43;;;;;;;305.00;142.05;;;;;;;-2.28;68.48;96086.27;1698956;84;21181;-51
2022/03/15 01:15:12;;;;;;;281.95;133.35;;;;;;;-2.29;68.36;96075.23;1701697;84;21049;-53
2022/03/15 01:17:39;;;;;;;276.70;128.82;;;;;;;-2.28;68.54;96078.72;1699445;83;20967;-53
2022/03/15 01:20:09;;;;;;;293.65;138.50;;;;;;;-2.26;68.45;96074.59;1701017;84;20994;-51
2022/03/15 01:22:37;;;;;;;287.27;131.00;;;;;;;-2.36;67.85;96062.88;1699203;84;21006;-50
2022/03/15 01:25:09;;;;;;;291.65;134.18;;;;;;;-2.47;68.00;96068.44;1700664;84;21355;-51
2022/03/15 01:27:38;;;;;;;290.73;140.73;;;;;;;-2.64;68.06;96060.55;1700336;82;21419;-50
2022/03/15 01:30:08;;;;;;;295.63;128.45;;;;;;;-2.64;68.06;96060.55;1699564;84;21441;-50
2022/03/15 01:32:35;;;;;;;286.37;130.75;;;;;;;-2.76;68.59;96056.46;1700952;83;21002;-51
2022/03/15 01:35:05;;;;;;;266.73;123.07;;;;;;;-2.81;68.90;96062.60;1701290;83;21085;-50
2022/03/15 01:37:32;;;;;;;286.35;134.07;;;;;;;-2.81;69.19;96063.41;1699310;83;21264;-51
2022/03/15 01:40:01;;;;;;;291.80;134.30;;;;;;;-2.80;69.00;96058.25;1702486;83;21569;-50
2022/03/15 01:42:29;;;;;;;291.75;133.25;;;;;;;-2.84;69.00;96058.66;1701306;83;21489;-50
2022/03/15 01:44:56;;;;;;;234.55;112.45;;;;;;;-2.81;68.78;96071.48;1700594;83;20998;-51
2022/03/15 01:47:25;;;;;;;203.58;102.17;;;;;;;-2.81;68.71;96063.95;1700378;83;21029;-50
2022/03/15 01:49:53;;;;;;;242.50;115.77;;;;;;;-2.82;68.48;96067.22;1698787;83;21155;-51
2022/03/15 01:52:21;;;;;;;274.75;132.90;;;;;;;-2.78;68.73;96070.02;1699928;83;21006;-51
2022/03/15 01:54:50;;;;;;;282.37;135.30;;;;;;;-2.81;68.64;96072.03;1700404;84;20974;-51
2022/03/15 01:57:18;;;;;;;274.60;133.32;;;;;;;-2.88;68.84;96073.89;1699313;82;20986;-51
2022/03/15 01:59:48;;;;;;;283.95;134.82;;;;;;;-2.90;69.04;96082.87;1701286;83;21045;-51
2022/03/15 02:02:16;;;;;;;293.20;135.88;;;;;;;-2.88;69.26;96084.66;1701165;83;21119;-52
2022/03/15 02:04:46;;;;;;;305.15;146.20;;;;;;;-2.84;69.12;96086.16;1678301;84;21541;-51
2022/03/15 02:07:14;;;;;;;232.03;111.55;;;;;;;-2.82;69.61;96089.30;1701884;83;21461;-51
2022/03/15 02:09:43;;;;;;;265.48;128.32;;;;;;;-2.72;69.03;96087.56;1702229;83;21069;-49
2022/03/15 02:12:14;;;;;;;251.73;117.30;;;;;;;-2.76;68.64;96097.39;1700168;82;21085;-51
2022/03/15 02:14:42;;;;;;;243.80;113.47;;;;;;;-2.77;68.77;96097.17;1699165;84;21889;-52
2022/03/15 02:17:09;;;;;;;242.10;118.57;;;;;;;-2.73;68.54;96094.84;1701189;82;20966;-51
2022/03/15 02:19:38;;;;;;;225.82;110.22;;;;;;;-2.78;68.39;96092.36;1700887;84;21073;-51
2022/03/15 02:22:07;;;;;;;215.18;110.08;;;;;;;-2.90;68.35;96097.67;1700359;84;20982;-50
2022/03/15 02:24:35;;;;;;;236.50;115.95;;;;;;;-3.00;68.78;96100.77;1698442;83;21085;-53
2022/03/15 02:27:03;;;;;;;243.63;110.22;;;;;;;-2.99;69.08;96091.58;1707154;83;22082;-51
2022/03/15 02:29:31;;;;;;;210.65;103.10;;;;;;;-2.97;68.95;96077.23;1699698;84;21540;-51
2022/03/15 02:32:03;;;;;;;228.00;102.47;;;;;;;-2.92;68.73;96067.60;1701542;84;21057;-50
2022/03/15 02:34:31;;;;;;;217.68;97.57;;;;;;;-2.88;68.55;96072.55;1698721;84;21072;-51
2022/03/15 02:36:59;;;;;;;253.15;109.75;;;;;;;-2.84;68.38;96078.08;1700660;84;20970;-50
2022/03/15 02:39:27;;;;;;;219.77;94.13;;;;;;;-2.83;68.36;96076.37;1701688;83;21146;-51
2022/03/15 02:41:57;;;;;;;194.43;83.92;;;;;;;-2.78;68.47;96080.23;1700524;83;21028;-51
2022/03/15 02:44:25;;;;;;;182.05;83.82;;;;;;;-2.73;68.25;96085.98;1699560;83;21010;-51
2022/03/15 02:46:53;;;;;;;195.57;101.00;;;;;;;-2.70;67.97;96075.33;1700586;83;21204;-50
2022/03/15 02:49:21;;;;;;;199.65;98.70;;;;;;;-2.78;67.67;96084.28;1699085;84;21044;-52
2022/03/15 02:51:49;;;;;;;176.65;88.37;;;;;;;-2.96;67.73;96082.84;1701093;84;21191;-50
2022/03/15 02:54:16;;;;;;;199.05;94.00;;;;;;;-3.11;68.12;96085.32;1697452;84;21018;-51
2022/03/15 02:56:44;;;;;;;218.15;103.22;;;;;;;-3.22;68.41;96083.58;1699663;84;21111;-50
2022/03/15 02:59:16;;;;;;;224.00;108.10;;;;;;;-3.35;68.40;96085.18;1700142;84;21085;-51
2022/03/15 03:01:45;;;;;;;267.62;121.30;;;;;;;-3.45;68.98;96083.66;1700318;83;21022;-52
2022/03/15 03:04:12;;;;;;;288.32;128.18;;;;;;;-3.47;69.04;96079.16;1700424;83;21150;-50
2022/03/15 03:06:43;;;;;;;248.72;110.83;;;;;;;-3.50;69.08;96078.48;1700729;83;21045;-51
2022/03/15 03:09:11;;;;;;;220.25;103.10;;;;;;;-3.45;69.37;96080.20;1699249;83;20979;-51
2022/03/15 03:11:39;;;;;;;198.65;94.20;;;;;;;-3.35;69.52;96086.53;1702934;83;21532;-51
2022/03/15 03:14:06;;;;;;;175.07;82.82;;;;;;;-3.27;69.41;96097.80;1701949;83;21112;-52
2022/03/15 03:16:34;;;;;;;223.60;103.85;;;;;;;-3.15;69.76;96106.73;1701424;84;21415;-52
2022/03/15 03:19:02;;;;;;;379.68;170.20;;;;;;;-3.08;68.97;96106.99;1699945;83;21061;-51
2022/03/15 03:21:31;;;;;;;364.00;164.07;;;;;;;-3.12;69.02;96122.77;1700435;83;21604;-52
2022/03/15 03:23:59;;;;;;;257.60;124.35;;;;;;;-3.20;68.65;96123.63;1699459;83;21034;-51
2022/03/15 03:26:27;;;;;;;259.83;120.28;;;;;;;-3.36;68.72;96118.03;1699135;84;20948;-51
2022/03/15 03:28:55;;;;;;;229.40;112.97;;;;;;;-3.50;68.86;96121.51;1700690;83;21265;-51
2022/03/15 03:31:24;;;;;;;224.07;110.20;;;;;;;-3.64;68.97;96124.74;1701688;84;20993;-51
2022/03/15 03:33:53;;;;;;;242.72;113.97;;;;;;;-3.74;69.22;96114.34;1699611;83;21033;-52
2022/03/15 03:36:22;;;;;;;240.97;114.17;;;;;;;-3.76;69.70;96117.36;1698725;84;21576;-50
2022/03/15 03:38:51;;;;;;;325.48;141.85;;;;;;;-3.72;69.69;96120.20;1699205;84;21231;-50
2022/03/15 03:41:19;;;;;;;295.45;127.45;;;;;;;-3.62;69.78;96117.14;1700130;83;21002;-51
2022/03/15 03:43:47;;;;;;;347.60;149.82;;;;;;;-3.49;69.57;96119.05;1701216;83;21458;-51
2022/03/15 03:46:15;;;;;;;387.75;161.57;;;;;;;-3.40;69.45;96114.39;1699233;84;21046;-50
2022/03/15 03:48:43;;;;;;;388.42;167.93;;;;;;;-3.26;69.36;96120.33;1699224;84;21066;-50
2022/03/15 03:51:13;;;;;;;367.20;157.75;;;;;;;-3.19;68.67;96107.16;1701538;83;21111;-50
2022/03/15 03:53:41;;;;;;;323.65;137.88;;;;;;;-3.20;68.67;96104.22;1699803;84;21521;-51
2022/03/15 03:56:09;;;;;;;263.12;116.82;;;;;;;-3.17;68.66;96099.55;1701715;83;20950;-50
2022/03/15 03:58:36;;;;;;;213.55;106.58;;;;;;;-3.18;68.03;96100.67;1702759;83;21013;-49
2022/03/15 04:01:04;;;;;;;234.12;110.85;;;;;;;-3.33;67.96;96097.74;1699529;83;21017;-50
2022/03/15 04:03:33;;;;;;;221.72;105.67;;;;;;;-3.44;68.11;96100.59;1698840;84;21022;-50
2022/03/15 04:06:03;;;;;;;240.82;115.37;;;;;;;-3.54;68.13;96100.19;1698590;84;21131;-50
2022/03/15 04:08:32;;;;;;;268.70;125.25;;;;;;;-3.60;68.33;96096.09;1698814;84;21529;-51
2022/03/15 04:11:01;;;;;;;328.12;149.27;;;;;;;-3.60;68.46;96108.19;1701168;83;20990;-52
2022/03/15 04:13:32;;;;;;;373.80;174.40;;;;;;;-3.62;68.39;96115.80;1701662;83;20970;-51
2022/03/15 04:16:00;;;;;;;417.95;185.40;;;;;;;-3.66;68.50;96122.36;1698829;83;20966;-51
2022/03/15 04:18:28;;;;;;;393.27;168.00;;;;;;;-3.77;68.57;96116.33;1700625;83;21112;-50
2022/03/15 04:20:55;;;;;;;360.95;162.30;;;;;;;-3.80;68.89;96118.33;1697287;84;21033;-50
2022/03/15 04:23:23;;;;;;;343.88;157.95;;;;;;;-3.82;69.10;96117.86;1701057;83;20970;-53
2022/03/15 04:25:52;;;;;;;340.70;154.18;;;;;;;-3.81;69.46;96114.87;1698088;84;21565;-51
2022/03/15 04:28:19;;;;;;;356.00;159.87;;;;;;;-3.73;69.34;96102.50;1701919;84;21446;-52
2022/03/15 04:30:47;;;;;;;416.35;179.97;;;;;;;-3.63;69.37;96090.82;1698543;84;22037;-51
2022/03/15 04:33:16;;;;;;;359.05;151.85;;;;;;;-3.52;69.01;96087.20;1700214;83;21471;-51
2022/03/15 04:35:44;;;;;;;389.27;163.25;;;;;;;-3.41;68.79;96087.27;1700022;83;20993;-51
2022/03/15 04:38:13;;;;;;;356.87;146.98;;;;;;;-3.38;68.34;96080.46;1700794;83;21022;-50
2022/03/15 04:40:41;;;;;;;426.55;173.38;;;;;;;-3.33;68.63;96081.61;1700328;84;21596;-50
2022/03/15 04:43:09;;;;;;;398.02;164.82;;;;;;;-3.32;68.42;96083.98;1700467;83;21253;-50
2022/03/15 04:45:38;;;;;;;318.45;144.37;;;;;;;-3.29;68.04;96083.32;1700481;84;21468;-51
2022/03/15 04:48:05;;;;;;;299.12;132.43;;;;;;;-3.23;68.14;96096.03;1699657;83;21049;-51
2022/03/15 04:50:33;;;;;;;270.93;124.00;;;;;;;-3.19;67.70;96099.09;1702031;83;21073;-51
2022/03/15 04:53:00;;;;;;;248.53;114.75;;;;;;;-3.24;67.54;96096.58;1699411;83;21013;-51
2022/03/15 04:55:28;;;;;;;240.50;118.15;;;;;;;-3.25;67.72;96091.54;1699775;83;21143;-52
2022/03/15 04:57:56;;;;;;;322.70;146.37;;;;;;;-3.33;67.63;96093.17;1700461;83;21054;-51
2022/03/15 05:00:23;;;;;;;335.08;155.15;;;;;;;-3.45;68.01;96089.04;1701947;83;21045;-50
2022/03/15 05:02:51;;;;;;;282.20;129.55;;;;;;;-3.44;68.24;96083.89;1698135;84;21588;-51
2022/03/15 05:05:20;;;;;;;255.35;126.22;;;;;;;-3.38;68.17;96085.27;1701172;84;21010;-50
2022/03/15 05:07:48;;;;;;;245.40;119.82;;;;;;;-3.27;68.15;96097.80;1701415;83;21408;-51
2022/03/15 05:13:02;;;;;;;224.30;104.32;;;;;;;-3.19;67.63;96100.44;1699858;83;21112;-51
2022/03/15 05:15:30;;;;;;;275.52;134.20;;;;;;;-3.22;67.86;96100.30;1700667;83;20982;-51
2022/03/15 05:17:57;;;;;;;254.82;120.25;;;;;;;-3.22;67.73;96098.37;1701735;83;21449;-52
2022/03/15 05:20:27;;;;;;;303.20;141.95;;;;;;;-3.12;67.94;96100.70;1699983;84;21354;-51
2022/03/15 05:22:54;;;;;;;273.35;131.60;;;;;;;-2.99;68.04;96099.66;1701417;83;21081;-50
2022/03/15 05:25:22;;;;;;;213.37;109.92;;;;;;;-2.82;67.71;96084.72;1699810;83;21077;-51
2022/03/15 05:27:50;;;;;;;194.05;99.67;;;;;;;-2.71;67.54;96092.59;1701369;82;21092;-51
2022/03/15 05:30:19;;;;;;;190.05;98.05;;;;;;;-2.61;67.41;96080.09;1701541;84;21009;-50
2022/03/15 05:32:47;;;;;;;194.57;93.90;;;;;;;-2.48;67.27;96086.30;1700259;83;22213;-50
2022/03/15 05:35:16;;;;;;;196.43;96.22;;;;;;;-2.34;66.93;96082.18;1698998;84;20994;-52
2022/03/15 05:37:43;;;;;;;204.23;100.65;;;;;;;-2.31;66.59;96085.55;1700173;84;21014;-54
2022/03/15 05:40:12;;;;;;;214.27;108.67;;;;;;;-2.29;67.14;96077.92;1697132;84;21500;-51
2022/03/15 05:42:41;;;;;;;245.25;121.42;;;;;;;-2.15;67.07;96072.25;1700701;83;21041;-51
2022/03/15 05:45:09;;;;;;;282.17;124.55;;;;;;;-1.97;66.99;96074.39;1701586;84;21252;-50
2022/03/15 05:47:38;;;;;;;261.18;129.55;;;;;;;-1.81;66.64;96067.22;1699812;84;21061;-51
2022/03/15 05:50:07;;;;;;;189.45;98.75;;;;;;;-1.69;66.54;96060.50;1701247;83;21135;-50
2022/03/15 05:52:35;;;;;;;175.87;94.60;;;;;;;-1.53;66.45;96065.44;1699254;82;21462;-51
2022/03/15 05:55:03;;;;;;;159.27;86.12;;;;;;;-1.47;65.63;96068.13;1701532;83;21537;-51
2022/03/15 05:57:32;;;;;;;178.80;92.50;;;;;;;-1.54;65.50;96065.22;1700924;83;20990;-52
2022/03/15 06:00:01;;;;;;;170.30;83.58;;;;;;;-1.49;66.21;96060.94;1702454;83;21074;-51
2022/03/15 06:02:29;;;;;;;164.97;82.55;;;;;;;-1.30;66.20;96062.48;1698875;83;21030;-52
2022/03/15 06:04:59;;;;;;;167.30;81.25;;;;;;;-1.17;66.14;96066.75;1690671;84;21466;-51
2022/03/15 06:07:27;;;;;;;166.35;75.60;;;;;;;-1.04;65.84;96072.33;1699823;83;21075;-51
2022/03/15 06:09:55;;;;;;;141.47;66.65;;;;;;;-0.90;65.69;96075.45;1699304;83;21283;-52
2022/03/15 06:12:25;;;;;;;93.50;51.08;;;;;;;-0.75;65.49;96078.78;1700423;83;21573;-52
2022/03/15 06:14:54;;;;;;;113.85;59.30;;;;;;;-0.61;64.75;96067.03;1701878;83;21034;-55
2022/03/15 06:17:22;;;;;;;102.15;55.90;;;;;;;-0.64;64.51;96067.69;1701276;82;21021;-59
2022/03/15 06:19:49;;;;;;;113.62;58.40;;;;;;;-0.61;64.35;96057.58;1702109;83;21013;-59
2022/03/15 06:22:18;;;;;;;103.32;58.10;;;;;;;-0.56;64.55;96059.44;1700681;84;20910;-58
2022/03/15 06:24:45;;;;;;;163.68;83.03;;;;;;;-0.42;64.29;96065.82;1699044;84;21419;-51
2022/03/15 06:27:12;;;;;;;233.38;114.65;;;;;;;-0.40;64.18;96071.67;1698840;84;21070;-52
2022/03/15 06:29:40;;;;;;;184.37;94.00;;;;;;;-0.35;64.44;96074.91;1698907;84;21074;-52
2022/03/15 06:32:09;;;;;;;180.42;95.53;;;;;;;-0.23;64.13;96078.89;1700651;83;21438;-53
2022/03/15 06:34:37;;;;;;;191.32;98.22;;;;;;;-0.16;63.61;96066.13;1699191;84;21244;-54
2022/03/15 06:37:07;;;;;;;211.45;117.15;;;;;;;-0.20;63.78;96063.91;1698170;83;21001;-53
2022/03/15 06:39:34;;;;;;;183.72;100.47;;;;;;;-0.19;63.55;96063.53;1698512;83;21411;-53
2022/03/15 06:42:07;;;;;;;158.72;87.57;;;;;;;-0.19;63.63;96068.17;1696368;82;21037;-52
2022/03/15 06:44:33;;;;;;;146.40;82.10;;;;;;;-0.16;63.60;96075.59;1700909;83;21005;-51
2022/03/15 06:47:01;;;;;;;141.85;74.32;;;;;;;-0.16;63.74;96070.18;1700907;83;21127;-52
2022/03/15 06:49:29;;;;;;;170.75;87.30;;;;;;;-0.13;63.73;96077.59;1699161;84;21057;-54
2022/03/15 06:51:56;;;;;;;134.78;73.30;;;;;;;0.00;63.33;96075.84;1702164;83;20954;-54
2022/03/15 06:54:26;;;;;;;138.88;76.80;;;;;;;0.13;62.33;96074.62;1697538;84;21014;-53
2022/03/15 06:56:53;;;;;;;165.97;84.60;;;;;;;0.25;62.16;96080.73;1699333;83;21557;-52
2022/03/15 06:59:21;;;;;;;136.15;76.70;;;;;;;0.36;61.93;96085.84;1698196;82;21149;-62
2022/03/15 07:01:49;;;;;;;121.22;67.75;;;;;;;0.50;61.61;96094.88;1717015;81;21122;-55
2022/03/15 07:04:17;;;;;;;135.68;72.95;;;;;;;0.62;61.07;96091.50;1703733;82;21084;-54
2022/03/15 07:06:46;;;;;;;122.62;69.45;;;;;;;0.69;60.50;96086.27;1708584;82;21070;-61
2022/03/15 07:09:13;;;;;;;112.25;62.40;;;;;;;0.77;60.24;96080.45;1716288;82;21044;-63
2022/03/15 07:11:41;;;;;;;121.65;73.10;;;;;;;0.82;60.18;96074.20;1690275;82;21147;-60
2022/03/15 07:14:10;;;;;;;110.85;64.80;;;;;;;0.93;60.10;96079.85;1700060;83;21119;-55
2022/03/15 07:16:37;;;;;;;97.62;57.10;;;;;;;1.11;60.31;96075.61;1701668;81;21110;-58
2022/03/15 07:19:06;;;;;;;92.97;55.25;;;;;;;1.26;59.82;96066.62;1704156;82;21154;-55
2022/03/15 07:21:34;;;;;;;85.42;51.48;;;;;;;1.46;59.04;96062.21;1707221;82;22486;-54
2022/03/15 07:24:02;;;;;;;84.15;49.40;;;;;;;1.70;58.55;96060.55;1711837;82;21135;-55
2022/03/15 07:26:31;;;;;;;95.15;50.83;;;;;;;1.89;57.48;96060.52;1635062;85;21215;-56
2022/03/15 07:29:01;;;;;;;100.15;51.70;;;;;;;2.09;56.93;96064.20;1710964;82;21073;-56
2022/03/15 07:31:31;;;;;;;78.05;43.95;;;;;;;2.35;56.59;96060.77;1711871;82;21101;-55
2022/03/15 07:34:00;;;;;;;75.10;43.30;;;;;;;2.60;55.07;96060.59;1704289;82;21074;-56
2022/03/15 07:36:28;;;;;;;65.15;39.40;;;;;;;2.68;54.50;96060.94;1704888;82;21942;-57
2022/03/15 07:38:56;;;;;;;65.15;39.00;;;;;;;2.77;54.52;96048.66;1705978;82;21491;-55
2022/03/15 07:41:23;;;;;;;81.05;41.05;;;;;;;2.91;53.93;96045.36;1699166;82;21043;-57
2022/03/15 07:43:51;;;;;;;80.40;45.43;;;;;;;3.12;53.29;96040.22;1699946;83;21118;-55
2022/03/15 07:46:19;;;;;;;69.05;41.90;;;;;;;3.29;52.61;96035.03;1708742;82;20971;-56
2022/03/15 07:48:47;;;;;;;76.05;45.17;;;;;;;3.49;51.97;96035.09;1705411;82;22061;-52
2022/03/15 07:51:16;;;;;;;87.92;48.45;;;;;;;3.59;51.67;96014.80;1693093;82;21070;-54
2022/03/15 07:53:44;;;;;;;76.97;43.85;;;;;;;3.70;51.94;96017.05;1715222;82;21101;-53
2022/03/15 07:56:11;;;;;;;83.10;48.63;;;;;;;3.86;51.59;96008.68;1702759;82;21534;-51
2022/03/15 07:58:39;;;;;;;72.80;44.00;;;;;;;3.96;50.57;96010.72;1700825;82;21120;-52
2022/03/15 08:05:10;;;;;;;92.72;53.38;;;;;;;4.10;50.76;96008.13;1702111;82;21011;-52
2022/03/15 08:07:37;;;;;;;87.20;50.92;;;;;;;4.45;50.75;96003.00;1697726;82;21031;-52
2022/03/15 08:10:07;;;;;;;118.17;53.02;;;;;;;4.63;49.91;95996.50;1703114;82;21524;-51
2022/03/15 08:12:37;;;;;;;70.62;41.28;;;;;;;4.77;49.84;95999.94;1699837;83;21046;-52
2022/03/15 08:15:06;;;;;;;78.97;42.93;;;;;;;4.90;49.56;95995.72;1694279;82;21224;-53
2022/03/15 08:17:36;;;;;;;85.40;47.23;;;;;;;5.07;49.30;95991.75;1710619;82;20994;-55
2022/03/15 08:20:05;;;;;;;86.28;45.25;;;;;;;5.23;48.19;95990.86;1688655;82;21036;-53
2022/03/15 08:22:35;;;;;;;69.23;40.73;;;;;;;5.42;48.32;95989.19;1707351;82;21044;-53
2022/03/15 08:25:05;;;;;;;60.20;35.80;;;;;;;5.66;48.07;95995.31;1709051;81;21512;-53
2022/03/15 08:27:34;;;;;;;80.77;46.33;;;;;;;5.87;46.95;95978.45;1687109;82;21104;-52
2022/03/15 08:30:04;;;;;;;89.62;48.10;;;;;;;5.98;46.57;95978.47;1684387;82;21047;-53
2022/03/15 08:32:31;;;;;;;83.45;45.30;;;;;;;6.05;46.52;95979.83;1709729;82;21541;-52
2022/03/15 08:34:59;;;;;;;88.52;42.03;;;;;;;6.14;45.78;95981.62;1698423;82;21532;-57
2022/03/15 08:37:28;;;;;;;67.35;40.43;;;;;;;6.27;46.00;95978.11;1694821;81;21014;-52
2022/03/15 08:39:56;;;;;;;67.42;39.58;;;;;;;6.45;45.59;95969.91;1711774;81;21076;-52
2022/03/15 08:42:25;;;;;;;68.72;39.58;;;;;;;6.66;45.22;95963.08;1709639;82;21031;-52
2022/03/15 08:44:52;;;;;;;62.15;37.38;;;;;;;6.81;45.54;95964.61;1699126;81;21114;-53
2022/03/15 08:47:21;;;;;;;60.40;35.92;;;;;;;6.94;44.62;95958.92;1696979;82;21050;-53
2022/03/15 08:49:48;;;;;;;60.35;34.13;;;;;;;7.07;45.07;95950.50;1700459;82;21896;-53
2022/03/15 08:52:15;;;;;;;58.20;32.28;;;;;;;7.18;43.99;95945.95;1706922;82;22245;-53
2022/03/15 08:54:43;;;;;;;51.55;31.90;;;;;;;7.31;43.55;95945.72;1700544;82;21490;-57
2022/03/15 08:57:10;;;;;;;50.08;29.72;;;;;;;7.48;43.77;95941.36;1706872;82;21077;-53
2022/03/15 08:59:41;;;;;;;43.75;28.57;;;;;;;7.62;43.92;95932.48;1691583;82;21537;-53
2022/03/15 09:02:12;;;;;;;53.70;31.05;;;;;;;7.73;42.71;95920.86;1700638;82;21593;-54
2022/03/15 09:04:40;;;;;;;42.15;26.95;;;;;;;7.90;42.20;95913.13;1700515;82;21018;-53
2022/03/15 09:07:07;;;;;;;44.08;27.22;;;;;;;8.06;41.86;95913.41;1702917;81;21556;-52
2022/03/15 09:09:35;;;;;;;47.73;27.82;;;;;;;8.24;42.29;95914.09;1698872;82;21065;-52
2022/03/15 09:12:03;;;;;;;46.68;28.80;;;;;;;8.41;41.06;95901.44;1711274;82;21002;-52
2022/03/15 09:14:32;;;;;;;47.98;29.82;;;;;;;8.51;39.65;95899.97;1709896;82;20976;-52
2022/03/15 09:17:00;;;;;;;45.43;27.13;;;;;;;8.67;39.55;95889.83;1708445;82;21080;-52
2022/03/15 09:19:28;;;;;;;46.33;27.40;;;;;;;8.89;39.50;95887.84;1691972;82;21164;-52
2022/03/15 09:21:56;;;;;;;59.20;31.95;;;;;;;9.09;39.31;95879.19;1709193;82;21093;-52
2022/03/15 09:24:23;;;;;;;45.95;27.52;;;;;;;9.33;39.33;95872.60;1709002;82;21141;-53
2022/03/15 09:26:50;;;;;;;43.33;23.70;;;;;;;9.56;39.42;95867.98;1703870;82;21206;-54
2022/03/15 09:29:20;;;;;;;43.17;23.73;;;;;;;9.80;39.25;95866.09;1703688;82;21148;-53
2022/03/15 09:31:49;;;;;;;33.70;22.58;;;;;;;9.99;39.20;95864.03;1711491;82;21181;-52
2022/03/15 09:34:22;;;;;;;46.65;27.87;;;;;;;10.21;37.01;95865.28;1707649;82;21955;-52
2022/03/15 09:36:46;;;;;;;40.90;27.65;;;;;;;10.29;36.96;95852.96;1697471;83;21029;-54
2022/03/15 09:39:15;;;;;;;41.77;25.50;;;;;;;10.40;37.03;95843.94;1709155;82;21042;-53
2022/03/15 09:41:43;;;;;;;40.75;23.65;;;;;;;10.57;36.35;95843.62;1705520;83;21086;-53
2022/03/15 09:44:14;;;;;;;34.03;21.62;;;;;;;10.87;37.79;95837.97;1703397;83;21153;-51
2022/03/15 09:46:43;;;;;;;34.90;20.32;;;;;;;11.27;36.34;95836.77;1711578;82;21031;-52
2022/03/15 09:49:10;;;;;;;29.85;19.30;;;;;;;11.73;35.24;95830.47;1671670;84;21033;-52
2022/03/15 09:51:38;;;;;;;30.08;16.57;;;;;;;12.19;34.13;95833.53;1699178;82;21096;-52
2022/03/15 09:54:06;;;;;;;24.05;13.45;;;;;;;12.68;32.42;95824.19;1706730;82;21207;-51
2022/03/15 09:56:40;;;;;;;19.35;12.50;;;;;;;13.16;29.44;95826.86;1695267;82;21031;-52
2022/03/15 09:59:16;;;;;;;16.00;11.18;;;;;;;13.46;27.94;95823.61;1706059;82;21010;-53
2022/03/15 10:01:44;;;;;;;21.00;12.23;;;;;;;13.78;28.27;95815.77;1699429;83;21109;-54
2022/03/15 10:04:13;;;;;;;35.85;13.40;;;;;;;14.15;28.01;95808.07;1702479;81;20999;-53
2022/03/15 10:06:40;;;;;;;25.88;13.25;;;;;;;14.45;28.14;95811.80;1699348;82;21148;-51
2022/03/15 10:09:08;;;;;;;52.45;13.15;;;;;;;14.67;27.11;95808.48;1699218;81;21148;-52
2022/03/15 10:11:37;;;;;;;17.00;11.38;;;;;;;14.88;27.18;95800.84;1698207;82;21033;-53
2022/03/15 10:14:05;;;;;;;20.52;12.18;;;;;;;15.13;25.97;95788.84;1703478;82;21562;-52
2022/03/15 10:16:36;;;;;;;17.52;11.22;;;;;;;15.36;26.24;95791.97;1702941;82;20998;-51
2022/03/15 10:19:04;;;;;;;19.85;11.30;;;;;;;15.65;25.25;95786.92;1697754;82;21145;-52
2022/03/15 10:21:52;;;;;;;18.82;12.43;;;;;;;15.90;24.75;95782.55;1660445;83;21079;-53
2022/03/15 10:24:23;;;;;;;20.85;11.05;;;;;;;16.04;24.81;95782.00;1695202;81;21502;-53
2022/03/15 10:26:52;;;;;;;17.97;9.43;;;;;;;16.14;24.44;95771.70;1691986;82;21166;-51
2022/03/15 10:29:22;;;;;;;10.55;8.25;;;;;;;16.29;24.16;95768.67;1699776;82;20972;-55
2022/03/15 10:31:51;;;;;;;14.53;9.58;;;;;;;16.42;23.96;95758.84;1695147;82;21241;-52
2022/03/15 10:34:21;;;;;;;18.15;8.98;;;;;;;16.55;23.86;95761.64;1694367;82;21030;-54
2022/03/15 10:36:53;;;;;;;11.08;8.55;;;;;;;16.70;24.11;95757.66;1669441;83;21145;-53
2022/03/15 10:39:20;;;;;;;11.05;8.05;;;;;;;16.89;23.26;95748.09;1649452;84;21100;-53
2022/03/15 10:41:55;;;;;;;14.85;8.90;;;;;;;17.15;22.28;95752.88;1695066;82;21139;-53
2022/03/15 10:44:33;;;;;;;24.60;10.48;;;;;;;17.28;22.41;95750.67;1702796;82;21314;-53
2022/03/15 10:47:15;;;;;;;29.15;10.10;;;;;;;17.27;23.07;95748.37;1706458;82;20908;-53
2022/03/15 10:49:59;;;;;;;11.30;8.63;;;;;;;17.38;23.11;95741.72;1704416;82;21034;-57
2022/03/15 10:52:35;;;;;;;16.60;11.03;;;;;;;17.44;22.13;95735.70;1701041;82;21022;-58
2022/03/15 10:55:28;;;;;;;13.25;10.70;;;;;;;17.63;22.05;95742.76;1692794;81;21542;-57
2022/03/15 10:58:03;;;;;;;15.58;9.18;;;;;;;18.06;21.74;95738.09;1696223;82;21158;-58
2022/03/15 11:00:37;;;;;;;11.40;8.50;;;;;;;18.54;21.26;95734.90;1708844;81;21053;-58
2022/03/15 11:03:10;;;;;;;12.30;8.90;;;;;;;18.73;20.72;95730.13;1702408;81;21105;-55
2022/03/15 11:05:41;;;;;;;13.90;9.10;;;;;;;18.92;20.73;95727.34;1667472;84;21073;-54
2022/03/15 11:08:10;;;;;;;11.63;8.63;;;;;;;19.04;20.21;95731.88;1679732;83;21105;-53
2022/03/15 11:10:40;;;;;;;26.73;9.58;;;;;;;19.26;19.79;95735.75;1659570;84;21065;-52
2022/03/15 11:13:11;;;;;;;12.53;8.40;;;;;;;19.59;19.99;95728.73;1637395;85;20985;-50
2022/03/15 11:15:48;;;;;;;15.08;8.50;;;;;;;19.72;19.36;95729.21;1650315;84;21148;-54
2022/03/15 11:18:19;;;;;;;10.35;8.40;;;;;;;19.72;19.84;95723.63;1657968;84;21554;-53
2022/03/15 11:20:50;;;;;;;15.08;8.38;;;;;;;19.66;19.67;95713.00;1710980;82;21104;-54
2022/03/15 11:23:19;;;;;;;19.15;9.73;;;;;;;19.95;19.97;95716.38;1697734;82;22155;-54
2022/03/15 11:25:55;;;;;;;14.47;8.50;;;;;;;20.13;19.40;95713.39;1659544;84;21058;-53